logo
Search for airport 
image banner adimage banner adimage banner ad
image banner ad

TFH2 - Pointe A Pitre Abymes Centre Hospitalier

Located in , Guadeloupe

ICAO - , IATA -

Data provided by Airmate  

General information

Coordinates: N16°14'10" W61°31'26"
Elevation is 58 feet MSL.
Magnetic variation is -14.92° East
View others Airports in (unassigned)

Operational data

Special qualification required
Current time UTC:
Current local time:
Weather at : TFFR - Pointe A Pitre Le Raizet ( 3 km )
METAR: TFFR 090630Z AUTO 06003KT 360V160 6000 -RA FEW016/// SCT024/// BKN035/// ///CB 21/21 Q1016 TEMPO 09015G25KT 2000 +SHRA
TAF: TAF TFFR 090500Z 0906/1006 09005KT 9999 SCT030 TEMPO 0906/0921 4500 -SHRA BKN018TCU PROB40 TEMPO 0906/0919 09015G25KT 2000 +SHRA SCT008 FEW012CB BKN018TCU BECMG 0912/0914 07015KT BECMG 0922/0924 09005KT
View NOTAMs / SUP AIP / TFR affecting this airport [VIEW]
Communications frequencies: [VIEW]

Runways:

Airport contact information

Address: Guadeloupe

Satellite view of TFH2